createdAt,value
2023-03-16T00:00:04.011Z,11.27
2023-03-16T00:02:30.960Z,11.77
2023-03-16T00:04:57.911Z,10.40
2023-03-16T00:07:25.154Z,10.83
2023-03-16T00:09:54.714Z,11.70
2023-03-16T00:12:22.795Z,9.90
2023-03-16T00:14:50.220Z,10.80
2023-03-16T00:17:19.826Z,9.47
2023-03-16T00:19:55.578Z,9.70
2023-03-16T00:22:25.169Z,10.20
2023-03-16T00:24:53.007Z,8.60
2023-03-16T00:27:20.166Z,9.33
2023-03-16T00:29:49.023Z,9.30
2023-03-16T00:32:21.237Z,9.30
2023-03-16T00:34:48.319Z,9.90
2023-03-16T00:37:17.466Z,9.40
2023-03-16T00:39:46.022Z,9.57
2023-03-16T00:42:15.308Z,10.63
2023-03-16T00:44:42.986Z,10.20
2023-03-16T00:47:14.410Z,11.43
2023-03-16T00:49:43.751Z,10.43
2023-03-16T00:52:14.960Z,9.77
2023-03-16T00:54:47.055Z,11.47
2023-03-16T00:57:18.428Z,11.13
2023-03-16T00:59:46.557Z,11.10
2023-03-16T01:02:15.008Z,10.87
2023-03-16T01:04:42.593Z,10.40
2023-03-16T01:07:12.676Z,11.10
2023-03-16T01:09:40.902Z,11.73
2023-03-16T01:12:19.497Z,12.43
2023-03-16T01:14:47.094Z,13.53
2023-03-16T01:17:16.096Z,12.97
2023-03-16T01:19:43.488Z,12.80
2023-03-16T01:22:11.770Z,12.70
2023-03-16T01:24:39.882Z,12.30
2023-03-16T01:27:07.913Z,12.17
2023-03-16T01:29:35.333Z,12.60
2023-03-16T01:32:04.389Z,13.37
2023-03-16T01:34:32.099Z,13.07
2023-03-16T01:36:59.575Z,14.47
2023-03-16T01:39:26.999Z,13.43
2023-03-16T01:41:54.272Z,12.07
2023-03-16T01:44:28.307Z,13.30
2023-03-16T01:46:55.342Z,12.60
2023-03-16T01:49:25.312Z,13.47
2023-03-16T01:52:02.814Z,13.20
2023-03-16T01:54:47.183Z,12.83
2023-03-16T01:57:22.636Z,13.20
2023-03-16T02:00:19.251Z,13.10
2023-03-16T02:02:56.666Z,13.10
2023-03-16T02:05:43.563Z,13.27
2023-03-16T02:08:12.526Z,12.77
2023-03-16T02:10:41.072Z,13.67
2023-03-16T02:13:08.286Z,13.97
2023-03-16T02:15:36.224Z,14.37
2023-03-16T02:18:04.351Z,14.80
2023-03-16T02:20:42.648Z,15.17
2023-03-16T02:23:18.602Z,14.27
2023-03-16T02:25:57.595Z,13.17
2023-03-16T02:28:33.399Z,13.40
2023-03-16T02:31:02.254Z,15.77
2023-03-16T02:33:30.002Z,17.70
2023-03-16T02:35:56.922Z,14.70
2023-03-16T02:38:24.099Z,12.93
2023-03-16T02:41:10.318Z,13.60
2023-03-16T02:43:39.713Z,17.00
2023-03-16T02:46:07.652Z,15.43
2023-03-16T02:48:34.568Z,14.90
2023-03-16T02:51:01.889Z,16.20
2023-03-16T02:53:28.794Z,15.73
2023-03-16T02:55:55.925Z,14.00
2023-03-16T02:58:22.831Z,14.03
2023-03-16T03:00:49.802Z,13.97
2023-03-16T03:03:16.903Z,17.70
2023-03-16T03:05:44.029Z,15.87
2023-03-16T03:08:11.361Z,15.17
2023-03-16T03:10:38.391Z,16.47
2023-03-16T03:13:07.441Z,15.70
2023-03-16T03:15:35.525Z,16.30
2023-03-16T03:18:02.885Z,13.47
2023-03-16T03:20:30.477Z,15.90
2023-03-16T03:22:57.808Z,16.27
2023-03-16T03:25:24.907Z,16.10
2023-03-16T03:27:54.668Z,15.27
2023-03-16T03:30:24.585Z,15.23
2023-03-16T03:32:52.612Z,17.17
2023-03-16T03:35:20.199Z,17.23
2023-03-16T03:37:47.584Z,17.43
2023-03-16T03:40:17.536Z,15.17
2023-03-16T03:42:44.561Z,15.87
2023-03-16T03:45:13.235Z,16.70
2023-03-16T03:47:43.897Z,16.30
2023-03-16T03:50:13.980Z,17.23
2023-03-16T03:52:41.447Z,16.17
2023-03-16T03:55:09.715Z,17.60
2023-03-16T03:57:36.756Z,16.80
2023-03-16T04:00:10.928Z,15.53
2023-03-16T04:02:38.818Z,16.20
2023-03-16T04:05:06.920Z,16.07
2023-03-16T04:07:33.969Z,15.60
2023-03-16T04:10:01.140Z,14.13
2023-03-16T04:12:28.268Z,14.67
2023-03-16T04:14:55.215Z,14.03
2023-03-16T04:17:22.467Z,14.23
2023-03-16T04:19:49.568Z,14.70
2023-03-16T04:22:17.298Z,15.47
2023-03-16T04:24:44.850Z,15.43
2023-03-16T04:27:12.405Z,14.63
2023-03-16T04:29:39.565Z,14.83
2023-03-16T04:32:07.735Z,14.23
2023-03-16T04:34:34.853Z,13.50
2023-03-16T04:37:02.493Z,14.33
2023-03-16T04:39:29.541Z,13.93
2023-03-16T04:41:56.556Z,13.67
2023-03-16T04:44:25.952Z,14.57
2023-03-16T04:46:53.034Z,15.10
2023-03-16T04:49:19.957Z,14.87
2023-03-16T04:51:46.949Z,14.57
2023-03-16T04:54:13.871Z,13.37
2023-03-16T04:56:41.660Z,14.90
2023-03-16T04:59:08.779Z,16.23
2023-03-16T05:01:35.802Z,15.10
2023-03-16T05:04:02.741Z,13.20
2023-03-16T05:06:29.899Z,15.27
2023-03-16T05:08:58.855Z,13.83
2023-03-16T05:11:25.820Z,14.73
2023-03-16T05:13:52.770Z,14.37
2023-03-16T05:16:20.330Z,17.17
2023-03-16T05:18:47.313Z,17.10
2023-03-16T05:21:14.239Z,17.33
2023-03-16T05:23:41.253Z,14.93
2023-03-16T05:26:08.884Z,16.97
2023-03-16T05:28:35.876Z,15.83
2023-03-16T05:31:03.983Z,15.50
2023-03-16T05:33:30.977Z,14.80
2023-03-16T05:35:58.258Z,16.70
2023-03-16T05:38:25.925Z,17.20
2023-03-16T05:40:53.271Z,17.13
2023-03-16T05:43:21.338Z,15.47
2023-03-16T05:45:48.825Z,16.87
2023-03-16T05:48:15.812Z,16.30
2023-03-16T05:50:42.870Z,16.40
2023-03-16T05:53:10.152Z,18.30
2023-03-16T05:55:37.088Z,17.80
2023-03-16T05:58:05.724Z,19.77
2023-03-16T06:00:33.245Z,16.83
2023-03-16T06:03:01.749Z,18.20
2023-03-16T06:05:29.901Z,18.77
2023-03-16T06:07:56.894Z,16.83
2023-03-16T06:10:24.394Z,18.83
2023-03-16T06:12:51.728Z,19.63
2023-03-16T06:15:19.260Z,18.80
2023-03-16T06:17:46.194Z,18.27
2023-03-16T06:20:13.970Z,20.33
2023-03-16T06:22:42.760Z,18.73
2023-03-16T06:25:12.440Z,18.60
2023-03-16T06:27:40.196Z,21.33
2023-03-16T06:30:10.301Z,20.00
2023-03-16T06:32:38.057Z,21.63
2023-03-16T06:35:05.905Z,18.40
2023-03-16T06:37:33.177Z,19.70
2023-03-16T06:40:00.414Z,18.80
2023-03-16T06:42:27.650Z,18.77
2023-03-16T06:44:54.586Z,19.03
2023-03-16T06:47:21.819Z,18.03
2023-03-16T06:49:51.299Z,19.50
2023-03-16T06:52:18.285Z,18.53
2023-03-16T06:54:45.588Z,19.53
2023-03-16T06:57:12.695Z,19.10
2023-03-16T06:59:39.817Z,21.03
2023-03-16T07:02:07.220Z,20.13
2023-03-16T07:04:34.312Z,22.83
2023-03-16T07:07:01.544Z,21.93
2023-03-16T07:09:29.357Z,20.70
2023-03-16T07:11:56.377Z,21.80
2023-03-16T07:14:26.248Z,20.90
2023-03-16T07:16:53.329Z,20.20
2023-03-16T07:19:20.473Z,16.90
2023-03-16T07:21:47.404Z,15.13
2023-03-16T07:24:15.410Z,13.80
2023-03-16T07:26:42.613Z,13.80
2023-03-16T07:29:10.138Z,13.27
2023-03-16T07:31:37.227Z,12.93
2023-03-16T07:34:04.710Z,12.60
2023-03-16T07:36:32.221Z,11.70
2023-03-16T07:38:59.141Z,11.80
2023-03-16T07:41:26.273Z,12.53
2023-03-16T07:43:53.506Z,10.73
2023-03-16T07:46:21.301Z,12.70
2023-03-16T07:48:48.357Z,12.33
2023-03-16T07:51:15.550Z,11.30
2023-03-16T07:53:42.546Z,12.43
2023-03-16T07:56:09.857Z,11.90
2023-03-16T07:58:37.006Z,10.60
2023-03-16T08:01:04.319Z,9.80
2023-03-16T08:03:32.153Z,10.87
2023-03-16T08:05:59.441Z,11.17
2023-03-16T08:08:26.507Z,10.87
2023-03-16T08:10:55.621Z,11.07
2023-03-16T08:13:24.001Z,10.87
2023-03-16T08:16:02.139Z,10.87
2023-03-16T08:18:30.303Z,10.60
2023-03-16T08:20:58.737Z,11.47
2023-03-16T08:23:26.192Z,10.40
2023-03-16T08:25:57.967Z,11.17
2023-03-16T08:28:26.253Z,11.20
2023-03-16T08:30:54.286Z,11.40
2023-03-16T08:33:23.172Z,11.47
2023-03-16T08:35:50.950Z,10.97
2023-03-16T08:38:19.353Z,10.87
2023-03-16T08:40:49.668Z,11.10
2023-03-16T08:43:17.635Z,11.30
2023-03-16T08:45:48.533Z,10.77
2023-03-16T08:48:15.930Z,10.97
2023-03-16T08:50:44.222Z,10.77
2023-03-16T08:53:12.614Z,11.30
2023-03-16T08:55:41.656Z,11.10
2023-03-16T08:58:10.543Z,11.00
2023-03-16T09:00:38.389Z,9.70
2023-03-16T09:03:06.235Z,10.00
2023-03-16T09:05:34.186Z,9.80
2023-03-16T09:08:01.821Z,10.70
2023-03-16T09:10:29.279Z,8.33
2023-03-16T09:12:56.843Z,8.70
2023-03-16T09:15:23.872Z,7.63
2023-03-16T09:17:51.084Z,8.80
2023-03-16T09:20:26.159Z,8.67
2023-03-16T09:22:55.638Z,8.03
2023-03-16T09:25:24.293Z,9.03
2023-03-16T09:27:51.647Z,9.30
2023-03-16T09:30:19.138Z,8.77
2023-03-16T09:32:48.946Z,8.23
2023-03-16T09:35:16.401Z,9.33
2023-03-16T09:37:45.355Z,8.10
2023-03-16T09:40:26.707Z,9.57
2023-03-16T09:43:27.561Z,8.27
2023-03-16T09:46:08.906Z,8.90
2023-03-16T09:48:37.756Z,8.47
2023-03-16T09:51:14.468Z,9.03
2023-03-16T09:53:42.137Z,8.40
2023-03-16T09:56:22.405Z,8.90
2023-03-16T09:58:49.438Z,8.87
2023-03-16T10:01:35.868Z,8.47
2023-03-16T10:04:25.092Z,7.73
2023-03-16T10:07:18.606Z,7.93
2023-03-16T10:10:14.996Z,7.63
2023-03-16T10:12:50.747Z,7.07
2023-03-16T10:15:23.325Z,8.03
2023-03-16T10:17:56.565Z,7.27
2023-03-16T10:20:24.901Z,7.10
2023-03-16T10:22:54.585Z,7.33
2023-03-16T10:25:44.336Z,7.43
2023-03-16T10:28:20.100Z,8.30
2023-03-16T10:30:50.259Z,6.97
2023-03-16T10:33:24.325Z,7.63
2023-03-16T10:36:31.391Z,7.63
2023-03-16T10:39:00.356Z,7.77
2023-03-16T10:41:32.728Z,13.53
2023-03-16T10:44:12.394Z,6.63
2023-03-16T10:46:40.948Z,6.67
2023-03-16T10:49:22.841Z,6.73
2023-03-16T10:51:49.967Z,6.77
2023-03-16T10:54:29.632Z,7.63
2023-03-16T10:56:57.723Z,5.57
2023-03-16T10:59:33.444Z,5.87
2023-03-16T11:02:17.491Z,6.87
2023-03-16T11:04:44.643Z,5.70
2023-03-16T11:07:17.823Z,7.03
2023-03-16T11:09:45.516Z,7.37
2023-03-16T11:12:30.292Z,6.70
2023-03-16T11:15:23.773Z,5.70
2023-03-16T11:17:55.905Z,6.23
2023-03-16T11:20:26.834Z,5.60
2023-03-16T11:22:53.804Z,6.00
2023-03-16T11:25:47.092Z,6.70
2023-03-16T11:28:27.192Z,5.27
2023-03-16T11:31:04.831Z,5.07
2023-03-16T11:33:34.997Z,5.33
2023-03-16T11:36:13.356Z,4.77
2023-03-16T11:39:05.811Z,4.37
2023-03-16T11:41:47.068Z,4.37
2023-03-16T11:44:33.536Z,4.83
2023-03-16T11:47:06.689Z,4.40
2023-03-16T11:49:45.828Z,4.78
2023-03-16T11:52:42.693Z,3.70
2023-03-16T11:55:29.015Z,4.20
2023-03-16T11:58:30.163Z,4.83
2023-03-16T12:01:19.984Z,4.15
2023-03-16T12:04:08.142Z,4.77
2023-03-16T12:06:47.180Z,4.53
2023-03-16T12:09:48.252Z,4.60
2023-03-16T12:12:38.259Z,4.63
2023-03-16T12:15:21.583Z,4.70
2023-03-16T12:17:54.077Z,4.20
2023-03-16T12:20:29.487Z,4.60
2023-03-16T12:23:03.560Z,5.27
2023-03-16T12:25:35.001Z,4.57
2023-03-16T12:28:07.694Z,4.67
2023-03-16T12:30:59.873Z,3.87
2023-03-16T12:33:53.679Z,3.87
2023-03-16T12:36:56.980Z,3.10
2023-03-16T12:39:56.159Z,3.63
2023-03-16T12:42:35.914Z,3.75
2023-03-16T12:45:30.281Z,3.97
2023-03-16T12:48:00.905Z,4.47
2023-03-16T12:50:27.912Z,4.00
2023-03-16T12:52:55.049Z,3.90
2023-03-16T12:55:37.151Z,3.25
2023-03-16T12:58:08.754Z,3.42
2023-03-16T13:00:38.898Z,4.38
2023-03-16T13:03:12.089Z,4.00
2023-03-16T13:05:46.543Z,3.58
2023-03-16T13:08:21.558Z,3.70
2023-03-16T13:11:24.436Z,3.63
2023-03-16T13:14:01.903Z,4.15
2023-03-16T13:16:34.175Z,3.45
2023-03-16T13:19:01.434Z,3.80
2023-03-16T13:21:38.194Z,3.58
2023-03-16T13:24:18.174Z,3.10
2023-03-16T13:26:50.406Z,2.97
2023-03-16T13:29:28.700Z,4.03
2023-03-16T13:32:02.443Z,3.90
2023-03-16T13:34:39.553Z,4.00
2023-03-16T13:37:15.288Z,4.72
2023-03-16T13:39:42.244Z,3.83
2023-03-16T13:42:09.825Z,3.47
2023-03-16T13:44:41.346Z,3.60
2023-03-16T13:47:08.629Z,5.10
2023-03-16T13:49:47.434Z,4.50
2023-03-16T13:52:25.690Z,3.85
2023-03-16T13:54:53.365Z,3.90
2023-03-16T13:57:24.234Z,4.75
2023-03-16T13:59:51.284Z,4.43
2023-03-16T14:02:20.820Z,4.80
2023-03-16T14:04:48.258Z,4.22
2023-03-16T14:07:17.693Z,4.60
2023-03-16T14:09:46.826Z,5.15
2023-03-16T14:12:15.501Z,4.50
2023-03-16T14:14:42.993Z,4.28
2023-03-16T14:17:16.533Z,4.47
2023-03-16T14:19:53.156Z,4.95
2023-03-16T14:22:35.354Z,2.80
2023-03-16T14:25:04.794Z,4.75
2023-03-16T14:27:38.986Z,4.77
2023-03-16T14:30:32.235Z,5.15
2023-03-16T14:33:04.824Z,5.38
2023-03-16T14:35:40.879Z,4.63
2023-03-16T14:38:28.953Z,5.07
2023-03-16T14:41:13.443Z,4.43
2023-03-16T14:43:47.869Z,6.72
2023-03-16T14:46:19.784Z,5.57
2023-03-16T14:48:46.821Z,5.38
2023-03-16T14:51:14.884Z,4.80
2023-03-16T14:53:41.828Z,5.68
2023-03-16T14:56:13.695Z,5.93
2023-03-16T14:58:41.931Z,5.03
2023-03-16T15:01:16.435Z,4.88
2023-03-16T15:03:44.232Z,4.47
2023-03-16T15:06:11.600Z,3.88
2023-03-16T15:08:44.556Z,4.88
2023-03-16T15:11:12.036Z,5.07
2023-03-16T15:13:42.318Z,4.83
2023-03-16T15:16:14.404Z,4.67
2023-03-16T15:18:42.036Z,5.30
2023-03-16T15:21:14.682Z,4.63
2023-03-16T15:23:43.488Z,4.77
2023-03-16T15:26:15.543Z,5.30
2023-03-16T15:28:43.095Z,5.47
2023-03-16T15:31:16.668Z,5.83
2023-03-16T15:33:45.391Z,5.87
2023-03-16T15:36:16.253Z,5.73
2023-03-16T15:38:46.658Z,22.57
2023-03-16T15:41:14.437Z,13.67
2023-03-16T15:43:42.073Z,5.30
2023-03-16T15:46:10.670Z,6.00
2023-03-16T15:48:37.717Z,5.43
2023-03-16T15:51:16.928Z,5.20
2023-03-16T15:53:51.448Z,5.77
2023-03-16T15:56:29.942Z,5.53
2023-03-16T15:59:02.440Z,5.40
2023-03-16T16:01:34.929Z,4.83
2023-03-16T16:04:02.129Z,5.30
2023-03-16T16:06:30.553Z,5.07
2023-03-16T16:08:57.526Z,5.47
2023-03-16T16:11:26.589Z,5.57
2023-03-16T16:13:55.890Z,4.87
2023-03-16T16:16:23.722Z,5.20
2023-03-16T16:18:50.950Z,4.70
2023-03-16T16:21:23.214Z,5.60
2023-03-16T16:23:52.373Z,5.17
2023-03-16T16:26:27.876Z,5.00
2023-03-16T16:28:59.336Z,5.47
2023-03-16T16:31:29.323Z,5.53
2023-03-16T16:33:56.576Z,5.63
2023-03-16T16:36:25.344Z,5.67
2023-03-16T16:38:52.654Z,5.70
2023-03-16T16:41:30.734Z,5.63
2023-03-16T16:43:58.043Z,6.10
2023-03-16T16:46:28.679Z,5.40
2023-03-16T16:49:07.182Z,6.20
2023-03-16T16:51:35.591Z,5.77
2023-03-16T16:54:04.862Z,7.23
2023-03-16T16:56:35.397Z,5.40
2023-03-16T16:59:15.984Z,7.70
2023-03-16T17:01:43.165Z,8.27
2023-03-16T17:04:17.756Z,5.33
2023-03-16T17:06:45.958Z,5.80
2023-03-16T17:09:16.303Z,5.57
2023-03-16T17:11:44.946Z,5.13
2023-03-16T17:14:17.038Z,4.70
2023-03-16T17:16:44.877Z,5.50
2023-03-16T17:19:27.220Z,5.60
2023-03-16T17:21:57.375Z,5.67
2023-03-16T17:24:25.328Z,5.90
2023-03-16T17:26:55.493Z,5.37
2023-03-16T17:29:27.489Z,5.40
2023-03-16T17:31:54.809Z,6.03
2023-03-16T17:34:23.258Z,5.53
2023-03-16T17:36:51.310Z,5.20
2023-03-16T17:39:21.125Z,5.20
2023-03-16T17:42:12.209Z,4.73
2023-03-16T17:44:49.920Z,4.97
2023-03-16T17:47:28.310Z,4.90
2023-03-16T17:49:57.012Z,5.30
2023-03-16T17:52:26.351Z,4.33
2023-03-16T17:54:54.300Z,4.27
2023-03-16T17:57:32.176Z,4.63
2023-03-16T18:00:01.561Z,4.23
2023-03-16T18:02:43.846Z,4.47
2023-03-16T18:05:40.519Z,4.00
2023-03-16T18:08:16.314Z,3.70
2023-03-16T18:10:45.050Z,4.37
2023-03-16T18:13:20.340Z,4.50
2023-03-16T18:15:48.706Z,3.80
2023-03-16T18:18:21.474Z,4.20
2023-03-16T18:20:54.931Z,3.73
2023-03-16T18:23:24.141Z,3.57
2023-03-16T18:25:54.065Z,3.50
2023-03-16T18:28:22.057Z,4.00
2023-03-16T18:30:52.864Z,3.63
2023-03-16T18:33:27.612Z,4.50
2023-03-16T18:35:57.382Z,3.53
2023-03-16T18:38:24.252Z,3.33
2023-03-16T18:40:51.332Z,3.83
2023-03-16T18:43:18.515Z,3.60
2023-03-16T18:45:46.521Z,3.70
2023-03-16T18:48:39.793Z,3.93
2023-03-16T18:51:15.428Z,3.73
2023-03-16T18:53:42.723Z,3.40
2023-03-16T18:56:21.961Z,4.20
2023-03-16T18:58:50.503Z,4.97
2023-03-16T19:01:32.481Z,4.77
2023-03-16T19:04:02.145Z,3.97
2023-03-16T19:06:35.104Z,4.07
2023-03-16T19:09:27.143Z,3.53
2023-03-16T19:11:54.841Z,4.30
2023-03-16T19:14:24.798Z,3.97
2023-03-16T19:16:54.049Z,3.50
2023-03-16T19:19:23.892Z,4.17
2023-03-16T19:21:53.881Z,4.37
2023-03-16T19:24:35.230Z,4.20
2023-03-16T19:27:03.626Z,5.40
2023-03-16T19:29:35.297Z,4.20
2023-03-16T19:32:02.636Z,3.80
2023-03-16T19:34:29.828Z,4.30
2023-03-16T19:36:56.790Z,4.80
2023-03-16T19:39:24.487Z,4.23
2023-03-16T19:41:58.063Z,4.10
2023-03-16T19:44:27.613Z,4.17
2023-03-16T19:46:55.302Z,4.97
2023-03-16T19:49:26.106Z,5.10
2023-03-16T19:51:55.239Z,5.03
2023-03-16T19:54:23.510Z,4.97
2023-03-16T19:56:52.608Z,4.63
2023-03-16T19:59:20.389Z,4.67
2023-03-16T20:01:47.942Z,4.63
2023-03-16T20:04:22.233Z,4.90
2023-03-16T20:06:50.096Z,4.67
2023-03-16T20:09:18.002Z,5.20
2023-03-16T20:11:45.679Z,4.77
2023-03-16T20:14:24.116Z,4.97
2023-03-16T20:16:51.284Z,5.23
2023-03-16T20:19:20.836Z,4.77
2023-03-16T20:21:49.104Z,4.90
2023-03-16T20:24:18.236Z,5.10
2023-03-16T20:26:46.654Z,5.30
2023-03-16T20:29:29.223Z,4.67
2023-03-16T20:31:57.024Z,5.10
2023-03-16T20:34:30.853Z,5.00
2023-03-16T20:36:57.942Z,4.83
2023-03-16T20:39:24.953Z,4.47
2023-03-16T20:41:52.259Z,4.70
2023-03-16T20:44:20.899Z,5.37
2023-03-16T20:46:48.137Z,4.90
2023-03-16T20:49:30.111Z,4.73
2023-03-16T20:51:57.063Z,5.10
2023-03-16T20:54:24.038Z,5.13
2023-03-16T20:56:51.116Z,5.47
2023-03-16T20:59:22.986Z,5.43
2023-03-16T21:01:50.464Z,5.07
2023-03-16T21:04:27.949Z,5.10
2023-03-16T21:06:56.131Z,5.40
2023-03-16T21:09:23.130Z,4.80
2023-03-16T21:11:50.498Z,5.83
2023-03-16T21:14:20.920Z,5.10
2023-03-16T21:16:48.762Z,5.17
2023-03-16T21:19:18.797Z,5.53
2023-03-16T21:21:46.552Z,5.50
2023-03-16T21:24:13.685Z,4.70
2023-03-16T21:26:42.847Z,5.63
2023-03-16T21:29:24.295Z,5.80
2023-03-16T21:31:51.958Z,4.90
2023-03-16T21:34:25.609Z,4.73
2023-03-16T21:36:52.677Z,5.20
2023-03-16T21:39:22.660Z,4.70
2023-03-16T21:41:50.879Z,4.73
2023-03-16T21:44:18.569Z,5.30
2023-03-16T21:46:47.493Z,5.50
2023-03-16T21:49:14.907Z,5.03
2023-03-16T21:51:43.358Z,5.03
2023-03-16T21:54:18.007Z,5.67
2023-03-16T21:56:46.153Z,5.30
2023-03-16T21:59:13.483Z,5.57
2023-03-16T22:01:58.360Z,5.83
2023-03-16T22:04:28.044Z,5.40
2023-03-16T22:06:55.447Z,5.50
2023-03-16T22:09:25.128Z,5.73
2023-03-16T22:11:52.146Z,5.53
2023-03-16T22:14:19.025Z,5.17
2023-03-16T22:16:47.463Z,5.50
2023-03-16T22:19:15.954Z,5.63
2023-03-16T22:21:44.392Z,5.10
2023-03-16T22:24:17.964Z,5.53
2023-03-16T22:26:46.396Z,5.63
2023-03-16T22:29:22.125Z,5.60
2023-03-16T22:31:50.435Z,6.00
2023-03-16T22:34:47.935Z,5.67
2023-03-16T22:37:19.613Z,6.20
2023-03-16T22:39:47.466Z,6.30
2023-03-16T22:42:24.308Z,6.57
2023-03-16T22:44:51.279Z,5.80
2023-03-16T22:47:26.981Z,5.80
2023-03-16T22:49:54.341Z,6.00
2023-03-16T22:52:28.125Z,6.03
2023-03-16T22:54:55.583Z,6.13
2023-03-16T22:57:22.989Z,5.73
2023-03-16T22:59:51.435Z,5.63
2023-03-16T23:02:24.443Z,5.53
2023-03-16T23:04:51.670Z,6.47
2023-03-16T23:07:19.813Z,5.43
2023-03-16T23:09:48.549Z,6.90
2023-03-16T23:12:20.582Z,6.07
2023-03-16T23:14:47.824Z,6.47
2023-03-16T23:17:20.715Z,6.20
2023-03-16T23:19:48.292Z,6.00
2023-03-16T23:22:16.000Z,5.63
2023-03-16T23:24:43.321Z,6.00
2023-03-16T23:27:21.535Z,6.37
2023-03-16T23:29:48.862Z,6.43
2023-03-16T23:32:17.216Z,6.40
2023-03-16T23:34:44.619Z,6.27
2023-03-16T23:37:12.001Z,6.40
2023-03-16T23:39:39.992Z,6.40
2023-03-16T23:42:07.654Z,6.10
2023-03-16T23:44:35.087Z,5.90
2023-03-16T23:47:02.401Z,6.30
2023-03-16T23:49:33.050Z,5.70
2023-03-16T23:52:01.922Z,6.43
2023-03-16T23:54:32.908Z,5.80
2023-03-16T23:56:59.864Z,6.73
2023-03-16T23:59:27.570Z,6.73
